sensor_id;sensor_type;location;lat;lon;timestamp;pressure;altitude;pressure_sealevel;temperature;humidity
6899;BME280;3488;42.616;23.350;2022-08-24T00:00:21;63806.53;;;17.47;100.00
6899;BME280;3488;42.616;23.350;2022-08-24T00:02:49;63798.19;;;17.39;100.00
6899;BME280;3488;42.616;23.350;2022-08-24T00:05:16;63803.41;;;17.44;100.00
6899;BME280;3488;42.616;23.350;2022-08-24T00:07:47;63794.53;;;17.33;100.00
6899;BME280;3488;42.616;23.350;2022-08-24T00:10:16;63793.00;;;17.34;100.00
6899;BME280;3488;42.616;23.350;2022-08-24T00:12:43;63780.03;;;17.26;100.00
6899;BME280;3488;42.616;23.350;2022-08-24T00:15:12;63784.16;;;17.25;100.00
6899;BME280;3488;42.616;23.350;2022-08-24T00:17:40;63784.63;;;17.23;100.00
6899;BME280;3488;42.616;23.350;2022-08-24T00:20:09;63771.69;;;17.16;100.00
6899;BME280;3488;42.616;23.350;2022-08-24T00:22:37;63775.31;;;17.17;100.00
6899;BME280;3488;42.616;23.350;2022-08-24T00:25:06;63767.50;;;17.12;100.00
6899;BME280;3488;42.616;23.350;2022-08-24T00:27:36;63764.38;;;17.06;100.00
6899;BME280;3488;42.616;23.350;2022-08-24T00:30:04;63757.59;;;17.00;100.00
6899;BME280;3488;42.616;23.350;2022-08-24T00:32:32;63757.09;;;16.99;100.00
6899;BME280;3488;42.616;23.350;2022-08-24T00:34:59;63756.56;;;16.99;100.00
6899;BME280;3488;42.616;23.350;2022-08-24T00:37:27;63750.38;;;16.98;100.00
6899;BME280;3488;42.616;23.350;2022-08-24T00:39:54;63760.75;;;17.05;100.00
6899;BME280;3488;42.616;23.350;2022-08-24T00:42:21;63758.13;;;17.00;100.00
6899;BME280;3488;42.616;23.350;2022-08-24T00:44:50;63768.53;;;17.10;100.00
6899;BME280;3488;42.616;23.350;2022-08-24T00:47:19;63759.19;;;17.04;100.00
6899;BME280;3488;42.616;23.350;2022-08-24T00:49:52;63765.44;;;17.10;100.00
6899;BME280;3488;42.616;23.350;2022-08-24T00:52:23;63762.88;;;17.10;100.00
6899;BME280;3488;42.616;23.350;2022-08-24T00:54:54;63771.66;;;17.13;100.00
6899;BME280;3488;42.616;23.350;2022-08-24T00:57:25;63767.53;;;17.14;100.00
6899;BME280;3488;42.616;23.350;2022-08-24T00:59:57;63773.72;;;17.13;100.00
6899;BME280;3488;42.616;23.350;2022-08-24T01:02:28;63771.63;;;17.11;100.00
6899;BME280;3488;42.616;23.350;2022-08-24T01:04:58;63770.09;;;17.12;100.00
6899;BME280;3488;42.616;23.350;2022-08-24T01:07:28;63774.75;;;17.14;100.00
6899;BME280;3488;42.616;23.350;2022-08-24T01:09:57;63764.38;;;17.09;100.00
6899;BME280;3488;42.616;23.350;2022-08-24T01:12:26;63760.75;;;17.05;100.00
6899;BME280;3488;42.616;23.350;2022-08-24T01:14:57;63760.78;;;17.08;100.00
6899;BME280;3488;42.616;23.350;2022-08-24T01:17:25;63768.56;;;17.13;100.00
6899;BME280;3488;42.616;23.350;2022-08-24T01:20:11;63779.97;;;17.21;100.00
6899;BME280;3488;42.616;23.350;2022-08-24T01:22:56;63788.78;;;17.27;100.00
6899;BME280;3488;42.616;23.350;2022-08-24T01:25:27;63787.78;;;17.29;100.00
6899;BME280;3488;42.616;23.350;2022-08-24T01:27:59;63798.16;;;17.37;100.00
6899;BME280;3488;42.616;23.350;2022-08-24T01:30:27;63801.91;;;17.48;100.00
6899;BME280;3488;42.616;23.350;2022-08-24T01:32:56;63814.38;;;17.55;100.00
6899;BME280;3488;42.616;23.350;2022-08-24T01:35:23;63821.13;;;17.61;100.00
6899;BME280;3488;42.616;23.350;2022-08-24T01:37:51;63814.44;;;17.62;100.00
6899;BME280;3488;42.616;23.350;2022-08-24T01:40:20;63827.38;;;17.67;100.00
6899;BME280;3488;42.616;23.350;2022-08-24T01:42:49;63823.22;;;17.66;100.00
6899;BME280;3488;42.616;23.350;2022-08-24T01:45:17;63820.66;;;17.66;100.00
6899;BME280;3488;42.616;23.350;2022-08-24T01:47:44;63823.22;;;17.63;100.00
6899;BME280;3488;42.616;23.350;2022-08-24T01:50:12;63817.47;;;17.58;100.00
6899;BME280;3488;42.616;23.350;2022-08-24T01:52:40;63809.19;;;17.52;100.00
6899;BME280;3488;42.616;23.350;2022-08-24T01:55:10;63802.94;;;17.46;100.00
6899;BME280;3488;42.616;23.350;2022-08-24T01:57:37;63799.22;;;17.38;100.00
6899;BME280;3488;42.616;23.350;2022-08-24T02:00:10;63792.47;;;17.33;100.00
6899;BME280;3488;42.616;23.350;2022-08-24T02:02:40;63784.69;;;17.28;100.00
6899;BME280;3488;42.616;23.350;2022-08-24T02:05:10;63780.50;;;17.22;100.00
6899;BME280;3488;42.616;23.350;2022-08-24T02:07:38;63773.22;;;17.15;100.00
6899;BME280;3488;42.616;23.350;2022-08-24T02:10:07;63760.25;;;17.05;100.00
6899;BME280;3488;42.616;23.350;2022-08-24T02:12:35;63761.28;;;17.06;100.00
6899;BME280;3488;42.616;23.350;2022-08-24T02:15:06;63754.50;;;16.99;100.00
6899;BME280;3488;42.616;23.350;2022-08-24T02:17:34;63755.53;;;16.98;100.00
6899;BME280;3488;42.616;23.350;2022-08-24T02:20:03;63746.16;;;16.91;100.00
6899;BME280;3488;42.616;23.350;2022-08-24T02:22:31;63740.38;;;16.81;100.00
6899;BME280;3488;42.616;23.350;2022-08-24T02:24:58;63729.53;;;16.75;100.00
6899;BME280;3488;42.616;23.350;2022-08-24T02:27:25;63732.06;;;16.70;100.00
6899;BME280;3488;42.616;23.350;2022-08-24T02:29:52;63735.19;;;16.76;100.00
6899;BME280;3488;42.616;23.350;2022-08-24T02:32:20;63728.97;;;16.72;100.00
6899;BME280;3488;42.616;23.350;2022-08-24T02:34:47;63730.03;;;16.73;100.00
6899;BME280;3488;42.616;23.350;2022-08-24T02:37:14;63726.44;;;16.75;100.00
6899;BME280;3488;42.616;23.350;2022-08-24T02:39:41;63724.81;;;16.68;100.00
6899;BME280;3488;42.616;23.350;2022-08-24T02:42:08;63724.28;;;16.68;100.00
6899;BME280;3488;42.616;23.350;2022-08-24T02:44:36;63721.75;;;16.70;100.00
6899;BME280;3488;42.616;23.350;2022-08-24T02:47:03;63726.44;;;16.75;100.00
6899;BME280;3488;42.616;23.350;2022-08-24T02:49:31;63736.25;;;16.79;100.00
6899;BME280;3488;42.616;23.350;2022-08-24T02:51:59;63730.09;;;16.78;100.00
6899;BME280;3488;42.616;23.350;2022-08-24T02:54:26;63747.69;;;16.88;100.00
6899;BME280;3488;42.616;23.350;2022-08-24T02:56:53;63743.59;;;16.89;100.00
6899;BME280;3488;42.616;23.350;2022-08-24T02:59:20;63744.16;;;16.94;100.00
6899;BME280;3488;42.616;23.350;2022-08-24T03:01:49;63760.75;;;17.05;100.00
6899;BME280;3488;42.616;23.350;2022-08-24T03:04:17;63761.28;;;17.06;100.00
6899;BME280;3488;42.616;23.350;2022-08-24T03:06:46;63765.91;;;17.05;100.00
6899;BME280;3488;42.616;23.350;2022-08-24T03:09:13;63762.34;;;17.09;100.00
6899;BME280;3488;42.616;23.350;2022-08-24T03:11:40;63765.94;;;17.10;100.00
6899;BME280;3488;42.616;23.350;2022-08-24T03:14:07;63767.06;;;17.16;100.00
6899;BME280;3488;42.616;23.350;2022-08-24T03:16:34;63764.91;;;17.09;100.00
6899;BME280;3488;42.616;23.350;2022-08-24T03:19:03;63770.09;;;17.12;100.00
6899;BME280;3488;42.616;23.350;2022-08-24T03:21:30;63778.91;;;17.18;100.00
6899;BME280;3488;42.616;23.350;2022-08-24T03:23:59;63771.16;;;17.15;100.00
6899;BME280;3488;42.616;23.350;2022-08-24T03:26:26;63775.81;;;17.17;100.00
6899;BME280;3488;42.616;23.350;2022-08-24T03:28:53;63776.34;;;17.20;100.00
6899;BME280;3488;42.616;23.350;2022-08-24T03:31:21;63777.94;;;17.22;100.00
6899;BME280;3488;42.616;23.350;2022-08-24T03:33:48;63778.94;;;17.20;100.00
6899;BME280;3488;42.616;23.350;2022-08-24T03:36:15;63782.06;;;17.23;100.00
6899;BME280;3488;42.616;23.350;2022-08-24T03:38:42;63777.41;;;17.21;100.00
6899;BME280;3488;42.616;23.350;2022-08-24T03:41:11;63777.94;;;17.22;100.00
6899;BME280;3488;42.616;23.350;2022-08-24T03:43:39;63777.41;;;17.21;100.00
6899;BME280;3488;42.616;23.350;2022-08-24T03:46:14;63784.16;;;17.25;100.00
6899;BME280;3488;42.616;23.350;2022-08-24T03:48:42;63786.75;;;17.28;100.00
6899;BME280;3488;42.616;23.350;2022-08-24T03:51:12;63785.22;;;17.29;100.00
6899;BME280;3488;42.616;23.350;2022-08-24T03:53:40;63787.81;;;17.31;100.00
6899;BME280;3488;42.616;23.350;2022-08-24T03:56:07;63797.19;;;17.41;100.00
6899;BME280;3488;42.616;23.350;2022-08-24T03:58:37;63799.28;;;17.45;100.00
6899;BME280;3488;42.616;23.350;2022-08-24T04:01:08;63804.00;;;17.50;100.00
6899;BME280;3488;42.616;23.350;2022-08-24T04:03:36;63816.91;;;17.52;100.00
6899;BME280;3488;42.616;23.350;2022-08-24T04:06:04;63808.59;;;17.47;100.00
6899;BME280;3488;42.616;23.350;2022-08-24T04:08:32;63807.63;;;17.51;100.00
6899;BME280;3488;42.616;23.350;2022-08-24T04:10:59;63806.59;;;17.50;100.00
6899;BME280;3488;42.616;23.350;2022-08-24T04:13:27;63812.81;;;17.53;100.00
6899;BME280;3488;42.616;23.350;2022-08-24T04:16:02;63815.44;;;17.58;100.00
6899;BME280;3488;42.616;23.350;2022-08-24T04:18:30;63827.94;;;17.73;100.00
6899;BME280;3488;42.616;23.350;2022-08-24T04:20:57;63825.81;;;17.66;100.00
6899;BME280;3488;42.616;23.350;2022-08-24T04:23:24;63821.16;;;17.64;100.00
6899;BME280;3488;42.616;23.350;2022-08-24T04:25:51;63815.97;;;17.61;100.00
6899;BME280;3488;42.616;23.350;2022-08-24T04:28:19;63814.38;;;17.55;100.00
6899;BME280;3488;42.616;23.350;2022-08-24T04:30:48;63819.63;;;17.67;100.00
6899;BME280;3488;42.616;23.350;2022-08-24T04:33:18;63827.38;;;17.67;100.00
6899;BME280;3488;42.616;23.350;2022-08-24T04:35:46;63834.19;;;17.79;100.00
6899;BME280;3488;42.616;23.350;2022-08-24T04:38:15;63853.94;;;17.93;100.00
6899;BME280;3488;42.616;23.350;2022-08-24T04:40:43;63855.50;;;17.94;100.00
6899;BME280;3488;42.616;23.350;2022-08-24T04:43:12;63868.47;;;18.02;100.00
6899;BME280;3488;42.616;23.350;2022-08-24T04:45:41;63859.72;;;18.03;100.00
6899;BME280;3488;42.616;23.350;2022-08-24T04:48:09;63868.06;;;18.11;100.00
6899;BME280;3488;42.616;23.350;2022-08-24T04:50:40;63875.84;;;18.19;100.00
6899;BME280;3488;42.616;23.350;2022-08-24T04:53:08;63885.22;;;18.25;100.00
6899;BME280;3488;42.616;23.350;2022-08-24T04:55:42;63894.03;;;18.31;100.00
6899;BME280;3488;42.616;23.350;2022-08-24T04:58:10;63897.22;;;18.39;100.00
6899;BME280;3488;42.616;23.350;2022-08-24T05:00:37;63914.34;;;18.49;100.00
6899;BME280;3488;42.616;23.350;2022-08-24T05:03:05;63908.66;;;18.46;100.00
6899;BME280;3488;42.616;23.350;2022-08-24T05:05:32;63909.22;;;18.51;100.00
6899;BME280;3488;42.616;23.350;2022-08-24T05:08:01;63916.47;;;18.53;100.00
6899;BME280;3488;42.616;23.350;2022-08-24T05:10:28;63925.34;;;18.64;100.00
6899;BME280;3488;42.616;23.350;2022-08-24T05:12:55;63927.91;;;18.64;100.00
6899;BME280;3488;42.616;23.350;2022-08-24T05:15:23;63927.91;;;18.62;100.00
6899;BME280;3488;42.616;23.350;2022-08-24T05:17:50;63931.56;;;18.68;100.00
6899;BME280;3488;42.616;23.350;2022-08-24T05:20:17;63939.88;;;18.73;100.00
6899;BME280;3488;42.616;23.350;2022-08-24T05:22:44;63946.69;;;18.82;100.00
6899;BME280;3488;42.616;23.350;2022-08-24T05:25:12;63950.41;;;18.91;100.00
6899;BME280;3488;42.616;23.350;2022-08-24T05:27:40;63962.38;;;19.02;100.00
6899;BME280;3488;42.616;23.350;2022-08-24T05:30:08;63974.84;;;19.09;100.00
6899;BME280;3488;42.616;23.350;2022-08-24T05:32:38;63988.44;;;19.27;100.00
6899;BME280;3488;42.616;23.350;2022-08-24T05:35:07;63998.91;;;19.37;100.00
6899;BME280;3488;42.616;23.350;2022-08-24T05:37:35;64011.91;;;19.47;100.00
6899;BME280;3488;42.616;23.350;2022-08-24T05:40:02;64018.69;;;19.54;100.00
6899;BME280;3488;42.616;23.350;2022-08-24T05:42:31;64040.56;;;19.73;100.00
6899;BME280;3488;42.616;23.350;2022-08-24T05:44:58;64054.09;;;19.83;100.00
6899;BME280;3488;42.616;23.350;2022-08-24T05:47:25;64049.97;;;19.84;100.00
6899;BME280;3488;42.616;23.350;2022-08-24T05:49:52;64035.88;;;19.68;100.00
6899;BME280;3488;42.616;23.350;2022-08-24T05:52:20;64030.16;;;19.65;100.00
6899;BME280;3488;42.616;23.350;2022-08-24T05:54:50;64025.97;;;19.61;100.00
6899;BME280;3488;42.616;23.350;2022-08-24T05:57:19;64029.09;;;19.64;100.00
6899;BME280;3488;42.616;23.350;2022-08-24T05:59:48;64035.91;;;19.71;100.00
6899;BME280;3488;42.616;23.350;2022-08-24T06:02:16;64009.25;;;19.40;100.00
6899;BME280;3488;42.616;23.350;2022-08-24T06:04:43;64015.03;;;19.50;100.00
6899;BME280;3488;42.616;23.350;2022-08-24T06:07:11;63991.53;;;19.28;100.00
6899;BME280;3488;42.616;23.350;2022-08-24T06:09:39;63989.97;;;19.24;100.00
6899;BME280;3488;42.616;23.350;2022-08-24T06:12:07;63987.34;;;19.21;100.00
6899;BME280;3488;42.616;23.350;2022-08-24T06:14:34;63987.34;;;19.21;100.00
6899;BME280;3488;42.616;23.350;2022-08-24T06:17:04;63968.63;;;19.08;100.00
6899;BME280;3488;42.616;23.350;2022-08-24T06:19:32;63965.53;;;19.08;100.00
6899;BME280;3488;42.616;23.350;2022-08-24T06:21:59;63977.47;;;19.14;100.00
6899;BME280;3488;42.616;23.350;2022-08-24T06:24:27;64003.56;;;19.39;100.00
6899;BME280;3488;42.616;23.350;2022-08-24T06:27:07;64027.56;;;19.65;100.00
6899;BME280;3488;42.616;23.350;2022-08-24T06:29:47;64029.63;;;19.65;100.00
6899;BME280;3488;42.616;23.350;2022-08-24T06:32:16;64057.25;;;19.89;100.00
6899;BME280;3488;42.616;23.350;2022-08-24T06:34:43;64083.84;;;20.14;100.00
6899;BME280;3488;42.616;23.350;2022-08-24T06:37:10;64063.00;;;19.97;100.00
6899;BME280;3488;42.616;23.350;2022-08-24T06:39:44;64040.09;;;19.77;100.00
6899;BME280;3488;42.616;23.350;2022-08-24T06:42:15;64025.44;;;19.58;100.00
6899;BME280;3488;42.616;23.350;2022-08-24T06:44:42;64046.84;;;19.81;100.00
6899;BME280;3488;42.616;23.350;2022-08-24T06:47:09;64082.88;;;20.18;100.00
6899;BME280;3488;42.616;23.350;2022-08-24T06:49:38;64110.00;;;20.44;100.00
6899;BME280;3488;42.616;23.350;2022-08-24T06:52:05;64132.94;;;20.64;100.00
6899;BME280;3488;42.616;23.350;2022-08-24T06:54:33;64101.63;;;20.34;100.00
6899;BME280;3488;42.616;23.350;2022-08-24T06:57:00;64123.53;;;20.50;100.00
6899;BME280;3488;42.616;23.350;2022-08-24T06:59:28;64119.88;;;20.49;100.00
6899;BME280;3488;42.616;23.350;2022-08-24T07:01:57;64142.34;;;20.71;100.00
6899;BME280;3488;42.616;23.350;2022-08-24T07:04:28;64106.31;;;20.36;100.00
6899;BME280;3488;42.616;23.350;2022-08-24T07:06:58;64112.06;;;20.41;100.00
6899;BME280;3488;42.616;23.350;2022-08-24T07:09:25;64106.31;;;20.36;100.00
6899;BME280;3488;42.616;23.350;2022-08-24T07:11:53;64140.78;;;20.69;100.00
6899;BME280;3488;42.616;23.350;2022-08-24T07:14:20;64118.31;;;20.47;100.00
6899;BME280;3488;42.616;23.350;2022-08-24T07:16:49;64125.66;;;20.57;100.00
6899;BME280;3488;42.616;23.350;2022-08-24T07:19:19;64136.06;;;20.64;100.00
6899;BME280;3488;42.616;23.350;2022-08-24T07:21:56;64141.31;;;20.75;100.00
6899;BME280;3488;42.616;23.350;2022-08-24T07:24:25;64192.47;;;21.19;100.00
6899;BME280;3488;42.616;23.350;2022-08-24T07:26:55;64154.88;;;20.85;100.00
6899;BME280;3488;42.616;23.350;2022-08-24T07:29:30;64133.47;;;20.64;100.00
6899;BME280;3488;42.616;23.350;2022-08-24T07:32:02;64139.22;;;20.70;100.00
6899;BME280;3488;42.616;23.350;2022-08-24T07:34:32;64167.38;;;20.95;100.00
6899;BME280;3488;42.616;23.350;2022-08-24T07:36:59;64209.16;;;21.35;100.00
6899;BME280;3488;42.616;23.350;2022-08-24T07:39:28;64229.00;;;21.51;100.00
6899;BME280;3488;42.616;23.350;2022-08-24T07:45:09;64204.50;;;21.33;100.00
6899;BME280;3488;42.616;23.350;2022-08-24T07:47:36;64247.34;;;21.76;100.00
6899;BME280;3488;42.616;23.350;2022-08-24T07:50:05;64241.06;;;21.68;100.00
6899;BME280;3488;42.616;23.350;2022-08-24T07:52:41;64235.28;;;21.60;100.00
6899;BME280;3488;42.616;23.350;2022-08-24T07:55:11;64278.72;;;22.07;100.00
6899;BME280;3488;42.616;23.350;2022-08-24T07:57:38;64274.53;;;22.00;100.00
6899;BME280;3488;42.616;23.350;2022-08-24T08:00:09;64311.63;;;22.38;100.00
6899;BME280;3488;42.616;23.350;2022-08-24T08:02:37;64317.34;;;22.36;100.00
6899;BME280;3488;42.616;23.350;2022-08-24T08:05:06;64353.44;;;22.71;100.00
6899;BME280;3488;42.616;23.350;2022-08-24T08:07:33;64371.22;;;22.93;97.08
6899;BME280;3488;42.616;23.350;2022-08-24T08:10:00;64348.72;;;22.69;97.28
6899;BME280;3488;42.616;23.350;2022-08-24T08:12:39;64335.59;;;22.51;95.60
6899;BME280;3488;42.616;23.350;2022-08-24T08:15:08;64306.38;;;22.31;95.63
6899;BME280;3488;42.616;23.350;2022-08-24T08:17:38;64294.34;;;22.17;98.59
6899;BME280;3488;42.616;23.350;2022-08-24T08:20:10;64286.00;;;22.11;99.61
6899;BME280;3488;42.616;23.350;2022-08-24T08:22:59;64283.91;;;22.07;99.35
6899;BME280;3488;42.616;23.350;2022-08-24T08:25:46;64303.78;;;22.28;96.26
6899;BME280;3488;42.616;23.350;2022-08-24T08:28:16;64314.72;;;22.34;89.75
6899;BME280;3488;42.616;23.350;2022-08-24T08:30:44;64341.94;;;22.65;90.63
6899;BME280;3488;42.616;23.350;2022-08-24T08:33:11;64404.69;;;23.23;88.79
6899;BME280;3488;42.616;23.350;2022-08-24T08:35:39;64469.56;;;23.82;87.38
6899;BME280;3488;42.616;23.350;2022-08-24T08:38:07;64489.50;;;24.09;80.12
6899;BME280;3488;42.616;23.350;2022-08-24T08:40:43;64473.78;;;23.91;82.31
6899;BME280;3488;42.616;23.350;2022-08-24T08:43:36;64443.91;;;23.58;84.80
6899;BME280;3488;42.616;23.350;2022-08-24T08:46:27;64429.25;;;23.44;87.67
6899;BME280;3488;42.616;23.350;2022-08-24T08:49:12;64444.97;;;23.61;84.16
6899;BME280;3488;42.616;23.350;2022-08-24T08:55:16;64550.19;;;24.62;81.38
6899;BME280;3488;42.616;23.350;2022-08-24T08:57:55;64586.31;;;24.94;78.05
6899;BME280;3488;42.616;23.350;2022-08-24T09:00:32;64616.72;;;25.29;77.65
6899;BME280;3488;42.616;23.350;2022-08-24T09:03:22;64643.47;;;25.57;75.99
6899;BME280;3488;42.616;23.350;2022-08-24T09:06:06;64598.38;;;25.08;73.74
6899;BME280;3488;42.616;23.350;2022-08-24T09:08:51;64568.53;;;24.82;75.77
6899;BME280;3488;42.616;23.350;2022-08-24T09:11:32;64619.34;;;25.31;75.52
6899;BME280;3488;42.616;23.350;2022-08-24T09:20:23;64690.06;;;25.94;69.44
6899;BME280;3488;42.616;23.350;2022-08-24T09:23:03;64714.22;;;26.22;68.07
6899;BME280;3488;42.616;23.350;2022-08-24T09:25:41;64737.28;;;26.44;65.10
6899;BME280;3488;42.616;23.350;2022-08-24T09:31:32;64756.16;;;26.62;62.73
6899;BME280;3488;42.616;23.350;2022-08-24T09:34:16;64744.63;;;26.44;61.81
6899;BME280;3488;42.616;23.350;2022-08-24T09:37:02;64742.00;;;26.49;64.37
6899;BME280;3488;42.616;23.350;2022-08-24T09:39:36;64748.81;;;26.53;68.85
6899;BME280;3488;42.616;23.350;2022-08-24T09:45:24;64730.47;;;26.35;65.83
6899;BME280;3488;42.616;23.350;2022-08-24T09:54:32;64674.88;;;25.82;69.89
6899;BME280;3488;42.616;23.350;2022-08-24T09:57:29;64678.56;;;25.85;67.38
6899;BME280;3488;42.616;23.350;2022-08-24T10:00:07;64673.34;;;25.83;68.22
6899;BME280;3488;42.616;23.350;2022-08-24T10:02:51;64657.06;;;25.65;64.57
6899;BME280;3488;42.616;23.350;2022-08-24T10:05:27;64687.47;;;25.94;64.22
6899;BME280;3488;42.616;23.350;2022-08-24T10:08:01;64707.94;;;26.11;62.18
6899;BME280;3488;42.616;23.350;2022-08-24T10:10:37;64701.13;;;26.07;69.35
6899;BME280;3488;42.616;23.350;2022-08-24T10:13:12;64707.41;;;26.15;66.00
6899;BME280;3488;42.616;23.350;2022-08-24T10:15:53;64724.19;;;26.29;64.22
6899;BME280;3488;42.616;23.350;2022-08-24T10:18:39;64737.78;;;26.42;61.86
6899;BME280;3488;42.616;23.350;2022-08-24T10:21:23;64740.97;;;26.45;57.27
6899;BME280;3488;42.616;23.350;2022-08-24T10:24:15;64752.47;;;26.56;58.43
6899;BME280;3488;42.616;23.350;2022-08-24T10:27:03;64774.53;;;26.75;59.38
6899;BME280;3488;42.616;23.350;2022-08-24T10:29:44;64797.63;;;27.02;59.17
6899;BME280;3488;42.616;23.350;2022-08-24T10:32:24;64821.72;;;27.20;56.12
6899;BME280;3488;42.616;23.350;2022-08-24T10:35:03;64817.00;;;27.13;56.85
6899;BME280;3488;42.616;23.350;2022-08-24T10:37:51;64766.66;;;26.70;57.20
6899;BME280;3488;42.616;23.350;2022-08-24T10:40:48;64780.84;;;26.83;60.89
6899;BME280;3488;42.616;23.350;2022-08-24T10:52:47;64725.75;;;26.28;63.80
6899;BME280;3488;42.616;23.350;2022-08-24T10:55:22;64745.16;;;26.52;64.00
6899;BME280;3488;42.616;23.350;2022-08-24T10:58:03;64788.69;;;26.93;60.89
6899;BME280;3488;42.616;23.350;2022-08-24T11:00:32;64760.91;;;26.69;59.49
6899;BME280;3488;42.616;23.350;2022-08-24T11:03:10;64818.59;;;27.19;61.07
6899;BME280;3488;42.616;23.350;2022-08-24T11:05:44;64847.47;;;27.47;60.14
6899;BME280;3488;42.616;23.350;2022-08-24T11:08:19;64837.00;;;27.42;55.75
6899;BME280;3488;42.616;23.350;2022-08-24T11:11:05;64866.84;;;27.63;55.07
6899;BME280;3488;42.616;23.350;2022-08-24T11:13:33;64790.28;;;26.95;56.52
6899;BME280;3488;42.616;23.350;2022-08-24T11:16:02;64802.31;;;27.01;57.74
6899;BME280;3488;42.616;23.350;2022-08-24T11:18:49;64763.53;;;26.69;58.26
6899;BME280;3488;42.616;23.350;2022-08-24T11:24:25;64847.97;;;27.48;55.18
6899;BME280;3488;42.616;23.350;2022-08-24T11:26:57;64878.41;;;27.79;58.82
6899;BME280;3488;42.616;23.350;2022-08-24T11:29:55;64912.03;;;28.11;56.28
6899;BME280;3488;42.616;23.350;2022-08-24T11:32:28;64936.16;;;28.32;55.50
6899;BME280;3488;42.616;23.350;2022-08-24T11:35:03;64929.88;;;28.28;53.60
6899;BME280;3488;42.616;23.350;2022-08-24T11:37:34;64915.19;;;28.09;55.48
6899;BME280;3488;42.616;23.350;2022-08-24T11:40:03;64927.78;;;28.26;59.95
6899;BME280;3488;42.616;23.350;2022-08-24T11:42:40;64922.53;;;28.21;56.73
6899;BME280;3488;42.616;23.350;2022-08-24T11:45:14;64962.44;;;28.57;55.00
6899;BME280;3488;42.616;23.350;2022-08-24T11:47:50;64967.16;;;28.62;54.81
6899;BME280;3488;42.616;23.350;2022-08-24T11:50:26;64986.59;;;28.83;55.06
6899;BME280;3488;42.616;23.350;2022-08-24T11:53:11;64992.38;;;28.86;54.33
6899;BME280;3488;42.616;23.350;2022-08-24T11:55:48;65007.59;;;29.03;54.78
6899;BME280;3488;42.616;23.350;2022-08-24T11:58:26;65001.84;;;29.00;56.64
6899;BME280;3488;42.616;23.350;2022-08-24T12:01:04;65013.94;;;29.11;51.54
6899;BME280;3488;42.616;23.350;2022-08-24T12:03:45;65038.06;;;29.22;51.05
6899;BME280;3488;42.616;23.350;2022-08-24T12:06:35;65030.75;;;29.25;50.54
6899;BME280;3488;42.616;23.350;2022-08-24T12:09:18;65010.75;;;29.01;49.74
6899;BME280;3488;42.616;23.350;2022-08-24T12:11:59;64948.25;;;28.43;50.51
6899;BME280;3488;42.616;23.350;2022-08-24T12:14:35;64950.34;;;28.43;52.21
6899;BME280;3488;42.616;23.350;2022-08-24T12:17:11;64917.78;;;28.12;52.26
6899;BME280;3488;42.616;23.350;2022-08-24T12:19:45;64850.59;;;27.50;55.78
6899;BME280;3488;42.616;23.350;2022-08-24T12:22:17;64826.97;;;27.22;56.44
6899;BME280;3488;42.616;23.350;2022-08-24T12:24:48;64719.97;;;26.25;61.44
6899;BME280;3488;42.616;23.350;2022-08-24T12:27:18;64751.97;;;26.51;61.92
6899;BME280;3488;42.616;23.350;2022-08-24T12:29:51;64769.31;;;26.80;60.84
6899;BME280;3488;42.616;23.350;2022-08-24T12:32:27;64777.66;;;26.78;61.12
6899;BME280;3488;42.616;23.350;2022-08-24T12:35:03;64753.00;;;26.57;60.43
6899;BME280;3488;42.616;23.350;2022-08-24T12:37:35;64778.72;;;26.81;61.71
6899;BME280;3488;42.616;23.350;2022-08-24T12:40:13;64771.38;;;26.77;62.22
6899;BME280;3488;42.616;23.350;2022-08-24T12:42:47;64768.25;;;26.74;60.41
6899;BME280;3488;42.616;23.350;2022-08-24T12:45:18;64719.47;;;26.25;63.50
6899;BME280;3488;42.616;23.350;2022-08-24T12:47:49;64638.75;;;25.50;69.33
6899;BME280;3488;42.616;23.350;2022-08-24T12:50:23;64610.97;;;25.21;73.19
6899;BME280;3488;42.616;23.350;2022-08-24T12:53:23;64590.00;;;25.03;75.80
6899;BME280;3488;42.616;23.350;2022-08-24T12:58:54;64624.56;;;25.34;75.00
6899;BME280;3488;42.616;23.350;2022-08-24T13:01:26;64647.13;;;25.55;71.17
6899;BME280;3488;42.616;23.350;2022-08-24T13:04:14;64672.81;;;25.80;68.83
6899;BME280;3488;42.616;23.350;2022-08-24T13:06:45;64634.56;;;25.46;70.55
6899;BME280;3488;42.616;23.350;2022-08-24T13:09:30;64643.97;;;25.52;69.57
6899;BME280;3488;42.616;23.350;2022-08-24T13:12:45;64614.13;;;25.26;71.63
6899;BME280;3488;42.616;23.350;2022-08-24T13:14:49;64614.09;;;25.24;73.48
6899;BME280;3488;42.616;23.350;2022-08-24T13:17:17;64587.91;;;24.96;73.97
6899;BME280;3488;42.616;23.350;2022-08-24T13:19:45;64569.06;;;24.78;75.73
6899;BME280;3488;42.616;23.350;2022-08-24T13:22:45;64549.13;;;24.61;78.51
6899;BME280;3488;42.616;23.350;2022-08-24T13:25:41;64527.66;;;24.38;81.00
6899;BME280;3488;42.616;23.350;2022-08-24T13:28:30;64507.78;;;24.22;79.96
6899;BME280;3488;42.616;23.350;2022-08-24T13:31:21;64530.81;;;24.41;81.83
6899;BME280;3488;42.616;23.350;2022-08-24T13:33:53;64522.97;;;24.36;83.11
6899;BME280;3488;42.616;23.350;2022-08-24T13:39:45;64490.00;;;24.07;84.38
6899;BME280;3488;42.616;23.350;2022-08-24T13:42:50;64483.16;;;23.95;85.40
6899;BME280;3488;42.616;23.350;2022-08-24T13:45:30;64477.44;;;23.95;85.51
6899;BME280;3488;42.616;23.350;2022-08-24T13:48:16;64466.41;;;23.79;86.08
6899;BME280;3488;42.616;23.350;2022-08-24T13:51:04;64493.13;;;24.08;84.53
6899;BME280;3488;42.616;23.350;2022-08-24T13:53:50;64492.63;;;24.07;84.25
6899;BME280;3488;42.616;23.350;2022-08-24T13:56:37;64524.50;;;24.35;82.69
6899;BME280;3488;42.616;23.350;2022-08-24T13:59:15;64537.59;;;24.48;80.54
6899;BME280;3488;42.616;23.350;2022-08-24T14:02:02;64511.47;;;24.28;83.50
6899;BME280;3488;42.616;23.350;2022-08-24T14:04:39;64520.88;;;24.34;83.47
6899;BME280;3488;42.616;23.350;2022-08-24T14:07:14;64524.00;;;24.35;81.45
6899;BME280;3488;42.616;23.350;2022-08-24T14:09:52;64498.34;;;24.13;80.08
6899;BME280;3488;42.616;23.350;2022-08-24T14:12:45;64531.84;;;24.42;81.71
6899;BME280;3488;42.616;23.350;2022-08-24T14:15:23;64568.53;;;24.80;77.93
6899;BME280;3488;42.616;23.350;2022-08-24T14:18:01;64604.69;;;25.17;76.55